createdAt,value
2018-05-29T00:00:26.527Z,1009.46
2018-05-29T00:01:36.218Z,1009.52
2018-05-29T00:02:45.365Z,1009.48
2018-05-29T00:03:54.529Z,1009.49
2018-05-29T00:05:03.951Z,1009.5
2018-05-29T00:06:13.390Z,1009.55
2018-05-29T00:07:22.820Z,1009.54
2018-05-29T00:08:32.501Z,1009.56
2018-05-29T00:09:42.432Z,1009.61
2018-05-29T00:10:51.328Z,1009.58
2018-05-29T00:12:01.017Z,1009.58
2018-05-29T00:13:10.205Z,1009.6
2018-05-29T00:14:19.381Z,1009.56
2018-05-29T00:15:28.532Z,1009.55
2018-05-29T00:16:37.952Z,1009.54
2018-05-29T00:17:47.360Z,1009.57
2018-05-29T00:18:56.778Z,1009.56
2018-05-29T00:21:15.138Z,1009.56
2018-05-29T00:22:24.373Z,1009.58
2018-05-29T00:23:33.280Z,1009.62
2018-05-29T00:24:42.695Z,1009.63
2018-05-29T00:25:52.625Z,1009.65
2018-05-29T00:27:02.052Z,1009.62
2018-05-29T00:28:11.750Z,1009.62
2018-05-29T00:29:21.175Z,1009.6
2018-05-29T00:30:30.861Z,1009.62
2018-05-29T00:31:40.794Z,1009.56
2018-05-29T00:32:49.972Z,1009.58
2018-05-29T00:33:59.382Z,1009.56
2018-05-29T00:35:08.830Z,1009.56
2018-05-29T00:36:18.259Z,1009.57
2018-05-29T00:37:27.929Z,1009.54
2018-05-29T00:38:37.610Z,1009.54
2018-05-29T00:39:47.560Z,1009.56
2018-05-29T00:40:56.990Z,1009.57
2018-05-29T00:42:06.433Z,1009.58
2018-05-29T00:43:15.879Z,1009.58
2018-05-29T00:44:25.298Z,1009.57
2018-05-29T00:45:34.460Z,1009.56
2018-05-29T00:46:44.153Z,1009.57
2018-05-29T00:47:54.090Z,1009.56
2018-05-29T00:49:03.786Z,1009.52
2018-05-29T00:50:13.227Z,1009.53
2018-05-29T00:51:23.156Z,1009.5
2018-05-29T00:52:32.049Z,1009.49
2018-05-29T00:53:41.464Z,1009.51
2018-05-29T00:54:51.146Z,1009.46
2018-05-29T00:56:00.638Z,1009.48
2018-05-29T00:57:09.544Z,1009.46
2018-05-29T00:58:19.226Z,1009.46
2018-05-29T00:59:28.376Z,1009.47
2018-05-29T01:00:38.042Z,1009.42
2018-05-29T01:01:47.471Z,1009.42
2018-05-29T01:02:56.898Z,1009.44
2018-05-29T01:04:06.325Z,1009.38
2018-05-29T01:05:15.785Z,1009.35
2018-05-29T01:06:25.217Z,1009.34
2018-05-29T01:07:34.395Z,1009.35
2018-05-29T01:08:43.566Z,1009.33
2018-05-29T01:09:52.460Z,1009.3
2018-05-29T01:11:01.632Z,1009.3
2018-05-29T01:12:11.050Z,1009.34
2018-05-29T01:13:20.224Z,1009.32
2018-05-29T01:14:29.905Z,1009.34
2018-05-29T01:15:39.568Z,1009.36
2018-05-29T01:16:48.975Z,1009.37
2018-05-29T01:17:58.397Z,1009.37
2018-05-29T01:19:08.109Z,1009.37
2018-05-29T01:20:17.534Z,1009.35
2018-05-29T01:21:26.957Z,1009.41
2018-05-29T01:22:36.633Z,1009.36
2018-05-29T01:23:45.541Z,1009.38
2018-05-29T01:24:54.970Z,1009.37
2018-05-29T01:26:04.416Z,1009.34
2018-05-29T01:27:14.132Z,1009.32
2018-05-29T01:28:23.298Z,1009.31
2018-05-29T01:29:32.730Z,1009.32
2018-05-29T01:30:42.425Z,1009.3
2018-05-29T01:31:52.098Z,1009.28
2018-05-29T01:33:01.291Z,1009.31
2018-05-29T01:34:10.716Z,1009.3
2018-05-29T01:35:19.891Z,1009.29
2018-05-29T01:36:29.562Z,1009.3
2018-05-29T01:37:38.724Z,1009.28
2018-05-29T01:38:48.170Z,1009.29
2018-05-29T01:39:57.074Z,1009.31
2018-05-29T01:41:06.260Z,1009.27
2018-05-29T01:42:15.956Z,1009.26
2018-05-29T01:43:24.628Z,1009.26
2018-05-29T01:44:34.056Z,1009.27
2018-05-29T01:45:43.468Z,1009.26
2018-05-29T01:46:53.156Z,1009.26
2018-05-29T01:48:02.853Z,1009.24
2018-05-29T01:49:12.285Z,1009.23
2018-05-29T01:50:22.267Z,1009.23
2018-05-29T01:51:31.435Z,1009.25
2018-05-29T01:52:40.354Z,1009.25
2018-05-29T01:53:49.519Z,1009.24
2018-05-29T01:54:58.946Z,1009.19
2018-05-29T01:56:08.427Z,1009.19
2018-05-29T01:57:17.613Z,1009.18
2018-05-29T01:58:27.033Z,1009.17
2018-05-29T01:59:37.028Z,1009.17
2018-05-29T02:00:46.751Z,1009.14
2018-05-29T02:01:55.645Z,1009.14
2018-05-29T02:03:04.556Z,1009.12
2018-05-29T02:04:13.995Z,1009.12
2018-05-29T02:05:23.987Z,1009.1
2018-05-29T02:06:33.398Z,1009.09
2018-05-29T02:07:42.282Z,1009.08
2018-05-29T02:08:51.453Z,1009.08
2018-05-29T02:10:00.650Z,1009.08
2018-05-29T02:11:10.070Z,1009.01
2018-05-29T02:12:19.260Z,1009.06
2018-05-29T02:13:28.687Z,1009.01
2018-05-29T02:14:37.851Z,1009.02
2018-05-29T02:15:47.530Z,1009.01
2018-05-29T02:16:56.994Z,1008.99
2018-05-29T02:18:06.430Z,1008.98
2018-05-29T02:19:15.872Z,1008.96
2018-05-29T02:20:25.303Z,1008.97
2018-05-29T02:21:34.992Z,1008.88
2018-05-29T02:22:44.420Z,1008.94
2018-05-29T02:23:54.093Z,1008.94
2018-05-29T02:25:03.524Z,1008.93
2018-05-29T02:26:12.698Z,1008.94
2018-05-29T02:27:21.628Z,1008.92
2018-05-29T02:28:31.070Z,1008.89
2018-05-29T02:29:39.971Z,1008.92
2018-05-29T02:30:49.416Z,1008.89
2018-05-29T02:31:58.854Z,1008.93
2018-05-29T02:33:08.042Z,1008.9
2018-05-29T02:34:17.468Z,1008.92
2018-05-29T02:35:26.629Z,1008.91
2018-05-29T02:36:36.135Z,1008.85
2018-05-29T02:37:45.308Z,1008.9
2018-05-29T02:38:55.020Z,1008.87
2018-05-29T02:40:04.458Z,1008.85
2018-05-29T02:41:14.440Z,1008.88
2018-05-29T02:42:23.901Z,1008.93
2018-05-29T02:43:33.604Z,1008.86
2018-05-29T02:44:43.043Z,1008.85
2018-05-29T02:45:52.487Z,1008.83
2018-05-29T02:47:02.223Z,1008.84
2018-05-29T02:48:11.435Z,1008.81
2018-05-29T02:49:20.869Z,1008.79
2018-05-29T02:50:30.037Z,1008.78
2018-05-29T02:51:39.781Z,1008.78
2018-05-29T02:52:49.465Z,1008.75
2018-05-29T02:53:59.170Z,1008.77
2018-05-29T02:55:08.591Z,1008.75
2018-05-29T02:56:18.028Z,1008.72
2018-05-29T02:57:27.780Z,1008.78
2018-05-29T02:58:37.216Z,1008.71
2018-05-29T02:59:46.383Z,1008.72
2018-05-29T03:00:56.056Z,1008.68
2018-05-29T03:02:05.744Z,1008.67
2018-05-29T03:03:15.209Z,1008.65
2018-05-29T03:04:25.056Z,1008.67
2018-05-29T03:05:33.985Z,1008.68
2018-05-29T03:06:43.413Z,1008.67
2018-05-29T03:07:52.835Z,1008.63
2018-05-29T03:09:02.432Z,1008.65
2018-05-29T03:10:11.593Z,1008.64
2018-05-29T03:11:21.085Z,1008.6
2018-05-29T03:12:29.733Z,1008.61
2018-05-29T03:13:39.154Z,1008.58
2018-05-29T03:14:49.102Z,1008.62
2018-05-29T03:15:58.526Z,1008.63
2018-05-29T03:17:08.198Z,1008.64
2018-05-29T03:18:17.874Z,1008.65
2018-05-29T03:19:27.322Z,1008.67
2018-05-29T03:20:36.745Z,1008.66
2018-05-29T03:21:45.929Z,1008.69
2018-05-29T03:22:55.344Z,1008.71
2018-05-29T03:24:04.766Z,1008.71
2018-05-29T03:25:13.951Z,1008.68
2018-05-29T03:26:22.861Z,1008.69
2018-05-29T03:27:32.092Z,1008.69
2018-05-29T03:28:41.253Z,1008.72
2018-05-29T03:29:50.950Z,1008.72
2018-05-29T03:31:00.625Z,1008.68
2018-05-29T03:32:10.049Z,1008.67
2018-05-29T03:33:19.720Z,1008.69
2018-05-29T03:34:29.191Z,1008.74
2018-05-29T03:35:39.288Z,1008.71
2018-05-29T03:36:48.949Z,1008.7
2018-05-29T03:37:58.640Z,1008.72
2018-05-29T03:39:08.102Z,1008.75
2018-05-29T03:40:17.269Z,1008.78
2018-05-29T03:41:26.455Z,1008.82
2018-05-29T03:42:35.643Z,1008.81
2018-05-29T03:43:45.324Z,1008.85
2018-05-29T03:44:54.801Z,1008.86
2018-05-29T03:46:04.239Z,1008.85
2018-05-29T03:47:13.148Z,1008.87
2018-05-29T03:48:22.068Z,1008.92
2018-05-29T03:49:31.755Z,1008.92
2018-05-29T03:50:41.173Z,1008.93
2018-05-29T03:51:50.842Z,1008.9
2018-05-29T03:52:59.987Z,1008.92
2018-05-29T03:54:09.663Z,1008.93
2018-05-29T03:55:19.352Z,1008.93
2018-05-29T03:56:29.029Z,1008.93
2018-05-29T03:57:38.435Z,1008.92
2018-05-29T03:58:47.860Z,1008.9
2018-05-29T03:59:57.283Z,1008.89
2018-05-29T04:01:06.447Z,1008.92
2018-05-29T04:02:15.637Z,1008.92
2018-05-29T04:03:25.311Z,1008.96
2018-05-29T04:04:35.006Z,1008.93
2018-05-29T04:05:44.169Z,1008.93
2018-05-29T04:06:54.545Z,1008.93
2018-05-29T04:08:03.951Z,1008.94
2018-05-29T04:09:13.119Z,1008.96
2018-05-29T04:10:22.032Z,1008.99
2018-05-29T04:11:31.994Z,1009.04
2018-05-29T04:12:41.428Z,1009.11
2018-05-29T04:13:50.845Z,1009.15
2018-05-29T04:14:59.742Z,1009.17
2018-05-29T04:16:08.917Z,1009.14
2018-05-29T04:17:18.098Z,1009.13
2018-05-29T04:18:27.777Z,1009.09
2018-05-29T04:19:37.460Z,1009.04
2018-05-29T04:20:46.623Z,1008.99
2018-05-29T04:21:56.295Z,1009
2018-05-29T04:23:05.712Z,1008.99
2018-05-29T04:24:14.880Z,1009.06
2018-05-29T04:25:24.053Z,1009.15
2018-05-29T04:26:33.744Z,1009.24
2018-05-29T04:27:42.913Z,1009.23
2018-05-29T04:28:52.347Z,1009.26
2018-05-29T04:30:02.283Z,1009.2
2018-05-29T04:31:11.976Z,1009.17
2018-05-29T04:32:21.654Z,1009.2
2018-05-29T04:33:31.335Z,1009.18
2018-05-29T04:34:40.505Z,1009.22
2018-05-29T04:35:49.673Z,1009.26
2018-05-29T04:36:59.356Z,1009.3
2018-05-29T04:38:09.045Z,1009.25
2018-05-29T04:39:18.736Z,1009.26
2018-05-29T04:40:28.188Z,1009.24
2018-05-29T04:41:37.874Z,1009.23
2018-05-29T04:42:47.318Z,1009.23
2018-05-29T04:43:56.495Z,1009.2
2018-05-29T04:45:05.917Z,1009.22
2018-05-29T04:46:15.368Z,1009.22
2018-05-29T04:47:24.795Z,1009.24
2018-05-29T04:48:33.721Z,1009.29
2018-05-29T04:49:42.649Z,1009.28
2018-05-29T04:50:52.741Z,1009.3
2018-05-29T04:52:01.922Z,1009.34
2018-05-29T04:53:11.606Z,1009.27
2018-05-29T04:54:21.032Z,1009.3
2018-05-29T04:55:30.451Z,1009.29
2018-05-29T04:56:40.193Z,1009.32
2018-05-29T04:57:49.430Z,1009.29
2018-05-29T04:58:58.881Z,1009.28
2018-05-29T05:00:08.287Z,1009.28
2018-05-29T05:01:17.981Z,1009.26
2018-05-29T05:02:27.453Z,1009.24
2018-05-29T05:03:37.635Z,1009.22
2018-05-29T05:04:46.819Z,1009.17
2018-05-29T05:05:56.509Z,1009.17
2018-05-29T05:07:06.214Z,1009.13
2018-05-29T05:08:15.654Z,1009.11
2018-05-29T05:09:24.563Z,1009.13
2018-05-29T05:10:33.731Z,1009.14
2018-05-29T05:11:43.170Z,1009.09
2018-05-29T05:12:52.641Z,1009.07
2018-05-29T05:14:02.057Z,1009.06
2018-05-29T05:15:11.200Z,1009.01
2018-05-29T05:16:20.108Z,1009
2018-05-29T05:17:29.278Z,1009
2018-05-29T05:18:38.723Z,1008.99
2018-05-29T05:19:48.145Z,1008.96
2018-05-29T05:20:57.577Z,1008.96
2018-05-29T05:22:06.527Z,1008.97
2018-05-29T05:23:16.250Z,1008.94
2018-05-29T05:24:25.416Z,1008.97
2018-05-29T05:25:34.892Z,1008.91
2018-05-29T05:26:44.075Z,1008.91
2018-05-29T05:27:53.236Z,1008.85
2018-05-29T05:29:02.667Z,1008.91
2018-05-29T05:30:12.094Z,1008.92
2018-05-29T05:31:21.573Z,1008.9
2018-05-29T05:32:30.788Z,1008.91
2018-05-29T05:33:39.950Z,1008.9
2018-05-29T05:34:49.392Z,1008.95
2018-05-29T05:35:59.368Z,1008.93
2018-05-29T05:37:09.320Z,1008.94
2018-05-29T05:38:18.217Z,1008.95
2018-05-29T05:39:28.150Z,1008.95
2018-05-29T05:40:37.875Z,1008.95
2018-05-29T05:41:47.052Z,1008.92
2018-05-29T05:42:56.480Z,1008.94
2018-05-29T05:44:05.908Z,1008.91
2018-05-29T05:45:15.575Z,1008.88
2018-05-29T05:46:24.781Z,1008.88
2018-05-29T05:47:34.198Z,1008.85
2018-05-29T05:48:43.938Z,1008.85
2018-05-29T05:49:53.101Z,1008.84
2018-05-29T05:51:02.258Z,1008.85
2018-05-29T05:52:11.440Z,1008.84
2018-05-29T05:53:20.856Z,1008.77
2018-05-29T05:54:30.021Z,1008.75
2018-05-29T05:55:39.713Z,1008.76
2018-05-29T05:56:49.138Z,1008.77
2018-05-29T05:57:58.293Z,1008.76
2018-05-29T05:59:07.193Z,1008.76
2018-05-29T06:00:16.618Z,1008.77
2018-05-29T06:01:26.590Z,1008.75
2018-05-29T06:02:36.004Z,1008.76
2018-05-29T06:03:45.430Z,1008.78
2018-05-29T06:04:54.586Z,1008.76
2018-05-29T06:06:04.273Z,1008.8
2018-05-29T06:07:13.473Z,1008.84
2018-05-29T06:08:23.179Z,1008.83
2018-05-29T06:09:32.337Z,1008.82
2018-05-29T06:10:41.583Z,1008.82
2018-05-29T06:11:50.756Z,1008.85
2018-05-29T06:12:59.929Z,1008.85
2018-05-29T06:14:09.610Z,1008.81
2018-05-29T06:15:19.562Z,1008.79
2018-05-29T06:16:28.994Z,1008.8
2018-05-29T06:17:38.966Z,1008.76
2018-05-29T06:18:48.157Z,1008.78
2018-05-29T06:19:57.327Z,1008.75
2018-05-29T06:21:07.017Z,1008.77
2018-05-29T06:22:16.956Z,1008.8
2018-05-29T06:23:25.879Z,1008.8
2018-05-29T06:24:35.565Z,1008.81
2018-05-29T06:25:44.928Z,1008.82
2018-05-29T06:26:54.383Z,1008.79
2018-05-29T06:28:03.570Z,1008.79
2018-05-29T06:29:13.258Z,1008.83
2018-05-29T06:30:22.417Z,1008.83
2018-05-29T06:31:32.416Z,1008.81
2018-05-29T06:32:42.160Z,1008.8
2018-05-29T06:33:51.417Z,1008.83
2018-05-29T06:35:01.104Z,1008.82
2018-05-29T06:36:10.296Z,1008.85
2018-05-29T06:37:19.249Z,1008.86
2018-05-29T06:38:29.207Z,1008.85
2018-05-29T06:39:38.942Z,1008.86
2018-05-29T06:40:48.365Z,1008.85
2018-05-29T06:41:57.026Z,1008.81
2018-05-29T06:43:06.222Z,1008.86
2018-05-29T06:44:15.399Z,1008.85
2018-05-29T06:45:24.841Z,1008.86
2018-05-29T06:46:34.536Z,1008.84
2018-05-29T06:47:43.709Z,1008.9
2018-05-29T06:48:52.860Z,1008.91
2018-05-29T06:50:02.027Z,1008.89
2018-05-29T06:51:10.928Z,1008.89
2018-05-29T06:52:19.574Z,1008.88
2018-05-29T06:53:29.003Z,1008.89
2018-05-29T06:54:38.407Z,1008.86
2018-05-29T06:55:48.353Z,1008.89
2018-05-29T06:56:58.088Z,1008.89
2018-05-29T06:58:07.254Z,1008.91
2018-05-29T06:59:16.169Z,1008.89
2018-05-29T07:00:25.074Z,1008.85
2018-05-29T07:01:34.513Z,1008.86
2018-05-29T07:02:43.680Z,1008.87
2018-05-29T07:03:52.648Z,1008.84
2018-05-29T07:05:02.579Z,1008.87
2018-05-29T07:06:11.474Z,1008.88
2018-05-29T07:07:20.384Z,1008.84
2018-05-29T07:08:30.061Z,1008.85
2018-05-29T07:09:39.233Z,1008.83
2018-05-29T07:10:48.911Z,1008.8
2018-05-29T07:11:58.603Z,1008.79
2018-05-29T07:13:08.071Z,1008.77
2018-05-29T07:14:17.241Z,1008.74
2018-05-29T07:15:27.181Z,1008.78
2018-05-29T07:16:36.347Z,1008.79
2018-05-29T07:17:46.019Z,1008.83
2018-05-29T07:18:55.182Z,1008.77
2018-05-29T07:20:04.350Z,1008.84
2018-05-29T07:21:13.777Z,1008.82
2018-05-29T07:22:23.184Z,1008.86
2018-05-29T07:23:32.079Z,1008.87
2018-05-29T07:24:41.264Z,1008.88
2018-05-29T07:25:50.707Z,1008.87
2018-05-29T07:27:00.159Z,1008.85
2018-05-29T07:28:09.324Z,1008.87
2018-05-29T07:29:18.756Z,1008.82
2018-05-29T07:30:28.182Z,1008.76
2018-05-29T07:31:37.335Z,1008.77
2018-05-29T07:32:46.759Z,1008.78
2018-05-29T07:33:55.918Z,1008.76
2018-05-29T07:35:04.855Z,1008.73
2018-05-29T07:36:14.011Z,1008.72
2018-05-29T07:37:23.692Z,1008.73
2018-05-29T07:38:33.119Z,1008.7
2018-05-29T07:39:42.825Z,1008.69
2018-05-29T07:40:52.907Z,1008.71
2018-05-29T07:42:02.591Z,1008.68
2018-05-29T07:43:12.037Z,1008.66
2018-05-29T07:44:21.727Z,1008.65
2018-05-29T07:45:31.411Z,1008.64
2018-05-29T07:46:40.325Z,1008.62
2018-05-29T07:47:50.295Z,1008.63
2018-05-29T07:48:59.183Z,1008.6
2018-05-29T07:50:08.609Z,1008.57
2018-05-29T07:51:17.527Z,1008.56
2018-05-29T07:52:27.229Z,1008.56
2018-05-29T07:53:36.641Z,1008.56
2018-05-29T07:54:46.136Z,1008.51
2018-05-29T07:55:55.818Z,1008.51
2018-05-29T07:57:04.989Z,1008.47
2018-05-29T07:58:14.167Z,1008.45
2018-05-29T07:59:23.856Z,1008.48
2018-05-29T08:00:33.275Z,1008.42
2018-05-29T08:01:42.718Z,1008.47
2018-05-29T08:02:52.141Z,1008.49
2018-05-29T08:04:01.564Z,1008.44
2018-05-29T08:05:10.505Z,1008.42
2018-05-29T08:06:20.198Z,1008.48
2018-05-29T08:07:29.751Z,1008.46
2018-05-29T08:08:39.710Z,1008.45
2018-05-29T08:09:48.870Z,1008.47
2018-05-29T08:10:58.545Z,1008.42
2018-05-29T08:12:07.460Z,1008.43
2018-05-29T08:13:17.165Z,1008.41
2018-05-29T08:14:27.123Z,1008.41
2018-05-29T08:15:37.230Z,1008.38
2018-05-29T08:16:46.685Z,1008.36
2018-05-29T08:17:55.850Z,1008.4
2018-05-29T08:19:05.259Z,1008.34
2018-05-29T08:20:14.939Z,1008.33
2018-05-29T08:21:24.358Z,1008.33
2018-05-29T08:22:34.063Z,1008.31
2018-05-29T08:23:42.983Z,1008.34
2018-05-29T08:24:52.689Z,1008.3
2018-05-29T08:26:01.855Z,1008.32
2018-05-29T08:27:11.511Z,1008.3
2018-05-29T08:28:21.207Z,1008.29
2018-05-29T08:29:30.887Z,1008.26
2018-05-29T08:30:40.558Z,1008.23
2018-05-29T08:31:49.723Z,1008.2
2018-05-29T08:32:59.151Z,1008.21
2018-05-29T08:34:08.577Z,1008.16
2018-05-29T08:35:18.266Z,1008.13
2018-05-29T08:36:27.679Z,1008.15
2018-05-29T08:37:37.085Z,1008.15
2018-05-29T08:38:46.505Z,1008.11
2018-05-29T08:39:55.931Z,1008.13
2018-05-29T08:41:05.100Z,1008.13
2018-05-29T08:42:13.747Z,1008.15
2018-05-29T08:43:23.182Z,1008.1
2018-05-29T08:44:32.590Z,1008.14
2018-05-29T08:45:41.251Z,1008.13
2018-05-29T08:46:50.437Z,1008.16
2018-05-29T08:47:59.864Z,1008.19
2018-05-29T08:49:09.313Z,1008.16
2018-05-29T08:50:18.473Z,1008.15
2018-05-29T08:51:28.128Z,1008.12
2018-05-29T08:52:37.288Z,1008.11
2018-05-29T08:53:46.962Z,1008.09
2018-05-29T08:54:55.862Z,1008.08
2018-05-29T08:56:05.540Z,1008.07
2018-05-29T08:57:15.220Z,1008.09
2018-05-29T08:58:24.745Z,1008.07
2018-05-29T08:59:34.453Z,1008.04
2018-05-29T09:00:43.633Z,1008.07
2018-05-29T09:01:53.325Z,1008.04
2018-05-29T09:03:02.509Z,1008.01
2018-05-29T09:04:12.230Z,1007.98
2018-05-29T09:05:22.396Z,1008
2018-05-29T09:06:32.327Z,1007.98
2018-05-29T09:07:42.003Z,1007.96
2018-05-29T09:08:51.451Z,1007.96
2018-05-29T09:10:00.905Z,1007.92
2018-05-29T09:11:10.596Z,1007.89
2018-05-29T09:12:20.012Z,1007.91
2018-05-29T09:13:29.447Z,1007.86
2018-05-29T09:14:38.631Z,1007.82
2018-05-29T09:15:48.059Z,1007.78
2018-05-29T09:16:57.483Z,1007.74
2018-05-29T09:18:06.649Z,1007.78
2018-05-29T09:19:16.065Z,1007.8
2018-05-29T09:20:25.753Z,1007.77
2018-05-29T09:21:34.968Z,1007.79
2018-05-29T09:22:44.131Z,1007.8
2018-05-29T09:23:53.569Z,1007.8
2018-05-29T09:25:02.992Z,1007.82
2018-05-29T09:26:12.213Z,1007.81
2018-05-29T09:27:21.647Z,1007.79
2018-05-29T09:28:31.067Z,1007.76
2018-05-29T09:29:40.528Z,1007.79
2018-05-29T09:30:50.304Z,1007.76
2018-05-29T09:31:59.286Z,1007.73
2018-05-29T09:33:09.331Z,1007.77
2018-05-29T09:34:18.766Z,1007.73
2018-05-29T09:35:28.522Z,1007.72
2018-05-29T09:36:38.485Z,1007.74
2018-05-29T09:37:47.392Z,1007.71
2018-05-29T09:38:56.610Z,1007.67
2018-05-29T09:40:05.783Z,1007.68
2018-05-29T09:41:15.500Z,1007.66
2018-05-29T09:42:25.216Z,1007.65
2018-05-29T09:43:34.644Z,1007.65
2018-05-29T09:44:44.118Z,1007.63
2018-05-29T09:45:53.397Z,1007.64
2018-05-29T09:47:03.395Z,1007.62
2018-05-29T09:48:13.144Z,1007.62
2018-05-29T09:49:22.441Z,1007.61
2018-05-29T09:50:31.631Z,1007.6
2018-05-29T09:51:40.599Z,1007.6
2018-05-29T09:52:49.854Z,1007.6
2018-05-29T09:53:59.736Z,1007.58
2018-05-29T09:55:08.938Z,1007.61
2018-05-29T09:56:18.365Z,1007.61
2018-05-29T09:57:27.801Z,1007.62
2018-05-29T09:58:36.973Z,1007.61
2018-05-29T09:59:46.388Z,1007.64
2018-05-29T10:00:56.068Z,1007.63
2018-05-29T10:02:05.516Z,1007.64
2018-05-29T10:03:15.209Z,1007.62
2018-05-29T10:04:24.393Z,1007.64
2018-05-29T10:05:33.806Z,1007.64
2018-05-29T10:06:43.484Z,1007.65
2018-05-29T10:07:52.661Z,1007.63
2018-05-29T10:09:01.851Z,1007.57
2018-05-29T10:10:10.777Z,1007.59
2018-05-29T10:11:20.739Z,1007.6
2018-05-29T10:12:30.323Z,1007.59
2018-05-29T10:13:39.741Z,1007.62
2018-05-29T10:14:49.161Z,1007.61
2018-05-29T10:15:58.835Z,1007.59
2018-05-29T10:17:08.746Z,1007.6
2018-05-29T10:18:17.318Z,1007.57
2018-05-29T10:19:27.084Z,1007.6
2018-05-29T10:20:36.609Z,1007.62
2018-05-29T10:21:45.801Z,1007.56
2018-05-29T10:22:55.230Z,1007.56
2018-05-29T10:24:04.131Z,1007.56
2018-05-29T10:25:13.566Z,1007.58
2018-05-29T10:26:23.000Z,1007.56
2018-05-29T10:27:32.678Z,1007.53
2018-05-29T10:28:42.131Z,1007.52
2018-05-29T10:29:51.285Z,1007.51
2018-05-29T10:31:00.756Z,1007.51
2018-05-29T10:32:09.866Z,1007.51
2018-05-29T10:33:19.585Z,1007.53
2018-05-29T10:34:29.029Z,1007.52
2018-05-29T10:35:38.188Z,1007.5
2018-05-29T10:36:47.875Z,1007.51
2018-05-29T10:37:57.315Z,1007.48
2018-05-29T10:39:06.740Z,1007.52
2018-05-29T10:40:16.424Z,1007.48
2018-05-29T10:41:26.095Z,1007.53
2018-05-29T10:42:35.794Z,1007.51
2018-05-29T10:43:44.961Z,1007.51
2018-05-29T10:44:54.652Z,1007.49
2018-05-29T10:46:04.145Z,1007.52
2018-05-29T10:47:13.470Z,1007.5
2018-05-29T10:48:22.382Z,1007.49
2018-05-29T10:49:31.808Z,1007.45
2018-05-29T10:50:41.235Z,1007.46
2018-05-29T10:51:50.543Z,1007.46
2018-05-29T10:52:59.960Z,1007.43
2018-05-29T10:54:08.848Z,1007.43
2018-05-29T10:55:18.273Z,1007.4
2018-05-29T10:56:28.209Z,1007.39
2018-05-29T10:57:37.895Z,1007.4
2018-05-29T10:58:47.312Z,1007.37
2018-05-29T10:59:56.473Z,1007.37
2018-05-29T11:01:06.135Z,1007.4
2018-05-29T11:02:15.555Z,1007.38
2018-05-29T11:03:24.980Z,1007.37
2018-05-29T11:04:34.689Z,1007.34
2018-05-29T11:05:43.871Z,1007.33
2018-05-29T11:06:53.325Z,1007.32
2018-05-29T11:08:03.170Z,1007.34
2018-05-29T11:09:12.587Z,1007.33
2018-05-29T11:10:22.516Z,1007.34
2018-05-29T11:11:31.696Z,1007.33
2018-05-29T11:12:41.627Z,1007.32
2018-05-29T11:13:51.049Z,1007.33
2018-05-29T11:15:00.211Z,1007.3
2018-05-29T11:16:09.891Z,1007.3
2018-05-29T11:17:19.389Z,1007.29
2018-05-29T11:18:29.322Z,1007.29
2018-05-29T11:19:38.487Z,1007.25
2018-05-29T11:20:48.185Z,1007.2
2018-05-29T11:21:57.353Z,1007.21
2018-05-29T11:23:06.511Z,1007.2
2018-05-29T11:24:15.680Z,1007.15
2018-05-29T11:25:25.097Z,1007.18
2018-05-29T11:26:34.789Z,1007.17
2018-05-29T11:27:43.427Z,1007.14
2018-05-29T11:28:52.847Z,1007.09
2018-05-29T11:30:02.295Z,1007.09
2018-05-29T11:31:12.016Z,1007.08
2018-05-29T11:32:21.881Z,1007.06
2018-05-29T11:33:31.826Z,1007.04
2018-05-29T11:34:41.251Z,1007.07
2018-05-29T11:35:50.975Z,1007.02
2018-05-29T11:37:00.149Z,1006.98
2018-05-29T11:38:09.585Z,1006.95
2018-05-29T11:39:19.064Z,1006.95
2018-05-29T11:40:28.239Z,1006.95
2018-05-29T11:41:37.140Z,1006.92
2018-05-29T11:42:46.833Z,1006.88
2018-05-29T11:43:56.248Z,1006.86
2018-05-29T11:45:05.147Z,1006.82
2018-05-29T11:46:14.321Z,1006.79
2018-05-29T11:47:23.754Z,1006.77
2018-05-29T11:48:33.250Z,1006.73
2018-05-29T11:49:43.089Z,1006.71
2018-05-29T11:50:52.816Z,1006.69
2018-05-29T11:52:01.979Z,1006.72
2018-05-29T11:53:11.422Z,1006.64
2018-05-29T11:54:20.832Z,1006.65
2018-05-29T11:55:30.773Z,1006.63
2018-05-29T11:56:40.714Z,1006.62
2018-05-29T11:57:49.895Z,1006.66
2018-05-29T11:58:59.062Z,1006.62
2018-05-29T12:00:08.753Z,1006.58
2018-05-29T12:01:18.428Z,1006.49
2018-05-29T12:02:28.142Z,1006.5
2018-05-29T12:03:37.323Z,1006.5
2018-05-29T12:04:46.783Z,1006.48
2018-05-29T12:05:56.790Z,1006.4
2018-05-29T12:07:06.225Z,1006.39
2018-05-29T12:08:15.905Z,1006.37
2018-05-29T12:09:25.626Z,1006.36
2018-05-29T12:10:35.311Z,1006.34
2018-05-29T12:11:44.996Z,1006.31
2018-05-29T12:12:54.661Z,1006.27
2018-05-29T12:14:03.696Z,1006.27
2018-05-29T12:15:12.876Z,1006.24
2018-05-29T12:16:22.295Z,1006.24
2018-05-29T12:17:31.737Z,1006.25
2018-05-29T12:18:41.477Z,1006.27
2018-05-29T12:19:51.606Z,1006.25
2018-05-29T12:21:01.283Z,1006.26
2018-05-29T12:22:10.457Z,1006.27
2018-05-29T12:23:19.639Z,1006.26
2018-05-29T12:24:29.559Z,1006.27
2018-05-29T12:25:38.984Z,1006.29
2018-05-29T12:26:48.156Z,1006.34
2018-05-29T12:27:57.842Z,1006.38
2018-05-29T12:29:07.524Z,1006.41
2018-05-29T12:30:16.953Z,1006.44
2018-05-29T12:31:26.118Z,1006.47
2018-05-29T12:32:35.031Z,1006.45
2018-05-29T12:33:44.981Z,1006.48
2018-05-29T12:34:54.150Z,1006.48
2018-05-29T12:36:03.615Z,1006.52
2018-05-29T12:37:13.050Z,1006.54
2018-05-29T12:38:22.765Z,1006.54
2018-05-29T12:39:31.938Z,1006.62
2018-05-29T12:40:41.141Z,1006.6
2018-05-29T12:41:50.860Z,1006.59
2018-05-29T12:43:00.304Z,1006.61
2018-05-29T12:44:09.782Z,1006.59
2018-05-29T12:45:19.195Z,1006.58
2018-05-29T12:46:28.632Z,1006.57
2018-05-29T12:47:38.306Z,1006.49
2018-05-29T12:48:47.749Z,1006.5
2018-05-29T12:49:57.437Z,1006.41
2018-05-29T12:51:06.807Z,1006.37
2018-05-29T12:52:15.975Z,1006.34
2018-05-29T12:53:25.657Z,1006.3
2018-05-29T12:54:34.875Z,1006.28
2018-05-29T12:55:44.839Z,1006.27
2018-05-29T12:56:54.611Z,1006.26
2018-05-29T12:58:04.143Z,1006.3
2018-05-29T12:59:13.822Z,1006.32
2018-05-29T13:00:23.260Z,1006.3
2018-05-29T13:01:32.720Z,1006.29
2018-05-29T13:02:42.673Z,1006.27
2018-05-29T13:03:52.123Z,1006.28
2018-05-29T13:05:02.108Z,1006.25
2018-05-29T13:06:11.540Z,1006.28
2018-05-29T13:07:21.204Z,1006.24
2018-05-29T13:08:30.117Z,1006.23
2018-05-29T13:09:39.266Z,1006.23
2018-05-29T13:10:48.452Z,1006.17
2018-05-29T13:11:58.147Z,1006.19
2018-05-29T13:13:07.853Z,1006.18
2018-05-29T13:14:16.780Z,1006.14
2018-05-29T13:15:25.710Z,1006.12
2018-05-29T13:16:35.455Z,1006.07
2018-05-29T13:17:45.305Z,1006.05
2018-05-29T13:18:54.989Z,1006.11
2018-05-29T13:20:04.161Z,1006.15
2018-05-29T13:21:13.830Z,1006.16
2018-05-29T13:22:22.994Z,1006.19
2018-05-29T13:23:32.463Z,1006.2
2018-05-29T13:24:41.648Z,1006.23
2018-05-29T13:25:51.582Z,1006.27
2018-05-29T13:27:01.305Z,1006.2
2018-05-29T13:28:11.137Z,1006.17
2018-05-29T13:29:20.576Z,1006.12
2018-05-29T13:30:30.282Z,1006.02
2018-05-29T13:31:40.221Z,1005.91
2018-05-29T13:32:49.880Z,1005.84
2018-05-29T13:33:59.612Z,1005.77
2018-05-29T13:35:08.520Z,1005.78
2018-05-29T13:36:18.695Z,1005.71
2018-05-29T13:37:28.375Z,1005.76
2018-05-29T13:38:37.812Z,1005.87
2018-05-29T13:39:47.785Z,1005.96
2018-05-29T13:40:57.237Z,1006.1
2018-05-29T13:42:06.403Z,1006.16
2018-05-29T13:43:16.060Z,1006.23
2018-05-29T13:44:25.507Z,1006.31
2018-05-29T13:45:34.943Z,1006.32
2018-05-29T13:46:44.623Z,1006.31
2018-05-29T13:47:53.770Z,1006.35
2018-05-29T13:49:03.178Z,1006.34
2018-05-29T13:50:13.424Z,1006.51
2018-05-29T13:51:23.084Z,1006.58
2018-05-29T13:52:32.787Z,1006.57
2018-05-29T13:53:42.203Z,1006.67
2018-05-29T13:54:51.900Z,1006.91
2018-05-29T13:56:01.614Z,1006.93
2018-05-29T13:57:11.020Z,1007.27
2018-05-29T13:58:20.454Z,1007.21
2018-05-29T13:59:30.148Z,1007.33
2018-05-29T14:00:39.581Z,1007.33
2018-05-29T14:01:49.035Z,1007.42
2018-05-29T14:02:58.492Z,1007.34
2018-05-29T14:04:08.193Z,1007.38